sensor_id;sensor_type;location;lat;lon;timestamp;P1;durP1;ratioP1;P2;durP2;ratioP2
45392;SDS011;31129;44.810;10.334;2024-02-14T05:29:24;13.73;;;7.03;;
45392;SDS011;31129;44.810;10.334;2024-02-14T05:31:49;17.92;;;7.15;;
45392;SDS011;31129;44.810;10.334;2024-02-14T05:34:17;14.97;;;7.27;;
45392;SDS011;31129;44.810;10.334;2024-02-14T05:36:42;17.02;;;7.63;;
45392;SDS011;31129;44.810;10.334;2024-02-14T05:39:10;13.52;;;6.90;;
45392;SDS011;31129;44.810;10.334;2024-02-14T05:41:35;19.60;;;7.70;;
45392;SDS011;31129;44.810;10.334;2024-02-14T05:44:01;16.17;;;7.30;;
45392;SDS011;31129;44.810;10.334;2024-02-14T05:46:26;14.48;;;7.22;;
45392;SDS011;31129;44.810;10.334;2024-02-14T05:48:53;17.92;;;6.93;;
45392;SDS011;31129;44.810;10.334;2024-02-14T05:51:18;16.75;;;7.63;;
45392;SDS011;31129;44.810;10.334;2024-02-14T05:53:44;16.90;;;7.45;;
45392;SDS011;31129;44.810;10.334;2024-02-14T05:56:09;15.30;;;7.25;;
45392;SDS011;31129;44.810;10.334;2024-02-14T05:58:35;19.33;;;7.60;;
45392;SDS011;31129;44.810;10.334;2024-02-14T06:01:01;14.70;;;7.60;;
45392;SDS011;31129;44.810;10.334;2024-02-14T06:03:26;19.15;;;7.32;;
45392;SDS011;31129;44.810;10.334;2024-02-14T06:05:52;13.40;;;6.50;;
45392;SDS011;31129;44.810;10.334;2024-02-14T06:08:18;14.88;;;6.72;;
45392;SDS011;31129;44.810;10.334;2024-02-14T06:10:44;15.70;;;7.07;;
45392;SDS011;31129;44.810;10.334;2024-02-14T06:13:10;12.50;;;6.57;;
45392;SDS011;31129;44.810;10.334;2024-02-14T06:15:35;12.90;;;7.15;;
45392;SDS011;31129;44.810;10.334;2024-02-14T06:18:01;13.88;;;7.10;;
45392;SDS011;31129;44.810;10.334;2024-02-14T06:20:26;14.98;;;7.35;;
45392;SDS011;31129;44.810;10.334;2024-02-14T06:22:52;14.98;;;7.13;;
45392;SDS011;31129;44.810;10.334;2024-02-14T06:25:17;15.75;;;6.90;;
45392;SDS011;31129;44.810;10.334;2024-02-14T06:27:43;17.25;;;6.88;;
45392;SDS011;31129;44.810;10.334;2024-02-14T06:30:09;18.67;;;7.00;;
45392;SDS011;31129;44.810;10.334;2024-02-14T06:32:35;14.88;;;6.68;;
45392;SDS011;31129;44.810;10.334;2024-02-14T06:35:01;15.52;;;7.63;;
45392;SDS011;31129;44.810;10.334;2024-02-14T06:37:27;15.98;;;7.90;;
45392;SDS011;31129;44.810;10.334;2024-02-14T06:39:53;14.45;;;7.57;;
45392;SDS011;31129;44.810;10.334;2024-02-14T06:42:18;12.60;;;7.53;;
45392;SDS011;31129;44.810;10.334;2024-02-14T06:44:44;14.00;;;6.95;;
45392;SDS011;31129;44.810;10.334;2024-02-14T06:47:10;19.58;;;6.80;;
45392;SDS011;31129;44.810;10.334;2024-02-14T06:49:36;15.60;;;6.20;;
45392;SDS011;31129;44.810;10.334;2024-02-14T06:52:01;14.75;;;8.10;;
45392;SDS011;31129;44.810;10.334;2024-02-14T06:54:27;15.02;;;7.43;;
45392;SDS011;31129;44.810;10.334;2024-02-14T06:56:52;17.17;;;8.23;;
45392;SDS011;31129;44.810;10.334;2024-02-14T06:59:18;22.27;;;8.07;;
45392;SDS011;31129;44.810;10.334;2024-02-14T07:01:44;16.00;;;6.55;;
45392;SDS011;31129;44.810;10.334;2024-02-14T07:04:09;16.67;;;6.85;;
45392;SDS011;31129;44.810;10.334;2024-02-14T07:06:35;14.77;;;7.38;;
45392;SDS011;31129;44.810;10.334;2024-02-14T07:09:01;14.73;;;6.53;;
45392;SDS011;31129;44.810;10.334;2024-02-14T07:11:26;15.10;;;7.30;;
45392;SDS011;31129;44.810;10.334;2024-02-14T07:13:52;14.50;;;7.05;;
45392;SDS011;31129;44.810;10.334;2024-02-14T07:16:17;17.65;;;7.45;;
45392;SDS011;31129;44.810;10.334;2024-02-14T07:18:43;14.15;;;7.05;;
45392;SDS011;31129;44.810;10.334;2024-02-14T07:21:08;17.65;;;7.72;;
45392;SDS011;31129;44.810;10.334;2024-02-14T07:23:34;13.93;;;6.95;;
45392;SDS011;31129;44.810;10.334;2024-02-14T07:25:59;22.45;;;8.52;;
45392;SDS011;31129;44.810;10.334;2024-02-14T07:28:26;22.95;;;8.18;;
45392;SDS011;31129;44.810;10.334;2024-02-14T07:30:52;23.27;;;8.32;;
45392;SDS011;31129;44.810;10.334;2024-02-14T07:33:17;18.25;;;9.23;;
45392;SDS011;31129;44.810;10.334;2024-02-14T07:35:43;21.02;;;9.50;;
45392;SDS011;31129;44.810;10.334;2024-02-14T07:38:08;20.42;;;8.82;;
45392;SDS011;31129;44.810;10.334;2024-02-14T07:40:34;15.77;;;8.88;;
45392;SDS011;31129;44.810;10.334;2024-02-14T07:43:00;22.27;;;10.27;;
45392;SDS011;31129;44.810;10.334;2024-02-14T07:45:26;24.55;;;10.60;;
45392;SDS011;31129;44.810;10.334;2024-02-14T07:47:51;23.02;;;11.23;;
45392;SDS011;31129;44.810;10.334;2024-02-14T07:50:17;26.98;;;10.90;;
45392;SDS011;31129;44.810;10.334;2024-02-14T07:52:43;19.45;;;10.30;;
45392;SDS011;31129;44.810;10.334;2024-02-14T07:55:10;24.25;;;9.77;;
45392;SDS011;31129;44.810;10.334;2024-02-14T07:57:41;19.53;;;11.03;;
45392;SDS011;31129;44.810;10.334;2024-02-14T08:00:07;23.52;;;9.75;;
45392;SDS011;31129;44.810;10.334;2024-02-14T08:02:34;25.15;;;10.80;;
45392;SDS011;31129;44.810;10.334;2024-02-14T08:05:00;24.10;;;10.98;;
45392;SDS011;31129;44.810;10.334;2024-02-14T08:07:26;19.58;;;10.45;;
45392;SDS011;31129;44.810;10.334;2024-02-14T08:09:51;19.27;;;9.73;;
45392;SDS011;31129;44.810;10.334;2024-02-14T08:12:17;18.65;;;9.73;;
45392;SDS011;31129;44.810;10.334;2024-02-14T08:14:42;19.63;;;8.88;;
45392;SDS011;31129;44.810;10.334;2024-02-14T08:17:08;16.95;;;8.75;;
45392;SDS011;31129;44.810;10.334;2024-02-14T08:19:33;14.48;;;8.38;;
45392;SDS011;31129;44.810;10.334;2024-02-14T08:22:00;14.48;;;7.85;;
45392;SDS011;31129;44.810;10.334;2024-02-14T08:24:27;14.65;;;7.57;;
45392;SDS011;31129;44.810;10.334;2024-02-14T08:26:53;17.77;;;7.57;;
45392;SDS011;31129;44.810;10.334;2024-02-14T08:29:19;11.50;;;7.28;;
45392;SDS011;31129;44.810;10.334;2024-02-14T08:31:44;21.98;;;8.73;;
45392;SDS011;31129;44.810;10.334;2024-02-14T08:34:10;20.35;;;8.93;;
45392;SDS011;31129;44.810;10.334;2024-02-14T08:36:35;14.27;;;7.60;;
45392;SDS011;31129;44.810;10.334;2024-02-14T08:39:08;16.95;;;8.32;;
45392;SDS011;31129;44.810;10.334;2024-02-14T08:41:35;19.00;;;9.25;;
45392;SDS011;31129;44.810;10.334;2024-02-14T08:44:02;19.42;;;9.07;;
45392;SDS011;31129;44.810;10.334;2024-02-14T08:46:29;21.33;;;9.85;;
45392;SDS011;31129;44.810;10.334;2024-02-14T08:48:54;20.98;;;10.48;;
45392;SDS011;31129;44.810;10.334;2024-02-14T08:51:20;21.60;;;10.00;;
45392;SDS011;31129;44.810;10.334;2024-02-14T08:53:46;22.50;;;10.77;;
45392;SDS011;31129;44.810;10.334;2024-02-14T08:56:11;17.10;;;9.98;;
45392;SDS011;31129;44.810;10.334;2024-02-14T08:58:37;18.38;;;10.65;;
45392;SDS011;31129;44.810;10.334;2024-02-14T09:01:03;19.05;;;11.52;;
45392;SDS011;31129;44.810;10.334;2024-02-14T09:03:28;23.88;;;12.15;;
45392;SDS011;31129;44.810;10.334;2024-02-14T09:05:56;22.95;;;12.75;;
45392;SDS011;31129;44.810;10.334;2024-02-14T09:08:22;29.85;;;14.35;;
45392;SDS011;31129;44.810;10.334;2024-02-14T09:10:49;21.77;;;13.98;;
45392;SDS011;31129;44.810;10.334;2024-02-14T09:13:15;22.58;;;12.75;;
45392;SDS011;31129;44.810;10.334;2024-02-14T09:15:41;21.13;;;12.40;;
45392;SDS011;31129;44.810;10.334;2024-02-14T09:18:06;22.45;;;13.73;;
45392;SDS011;31129;44.810;10.334;2024-02-14T09:20:32;22.67;;;12.50;;
45392;SDS011;31129;44.810;10.334;2024-02-14T09:22:57;21.58;;;12.55;;
45392;SDS011;31129;44.810;10.334;2024-02-14T09:25:24;19.45;;;12.07;;
45392;SDS011;31129;44.810;10.334;2024-02-14T09:27:50;16.90;;;11.63;;
45392;SDS011;31129;44.810;10.334;2024-02-14T09:30:16;20.13;;;12.23;;
45392;SDS011;31129;44.810;10.334;2024-02-14T09:32:45;18.77;;;11.35;;
45392;SDS011;31129;44.810;10.334;2024-02-14T09:35:12;20.48;;;12.90;;
45392;SDS011;31129;44.810;10.334;2024-02-14T09:37:38;23.75;;;12.25;;
45392;SDS011;31129;44.810;10.334;2024-02-14T09:40:05;21.30;;;13.38;;
45392;SDS011;31129;44.810;10.334;2024-02-14T09:42:35;23.33;;;11.48;;
45392;SDS011;31129;44.810;10.334;2024-02-14T09:45:06;18.33;;;11.90;;
45392;SDS011;31129;44.810;10.334;2024-02-14T09:47:33;20.23;;;11.50;;
45392;SDS011;31129;44.810;10.334;2024-02-14T09:49:59;19.90;;;10.43;;
45392;SDS011;31129;44.810;10.334;2024-02-14T09:52:28;20.77;;;11.27;;
45392;SDS011;31129;44.810;10.334;2024-02-14T09:54:55;14.15;;;9.82;;
45392;SDS011;31129;44.810;10.334;2024-02-14T09:57:21;23.88;;;10.75;;
45392;SDS011;31129;44.810;10.334;2024-02-14T09:59:47;18.35;;;10.38;;
45392;SDS011;31129;44.810;10.334;2024-02-14T10:02:13;18.35;;;11.80;;
45392;SDS011;31129;44.810;10.334;2024-02-14T10:04:39;17.50;;;11.20;;
45392;SDS011;31129;44.810;10.334;2024-02-14T10:07:05;16.15;;;10.75;;
45392;SDS011;31129;44.810;10.334;2024-02-14T10:09:30;17.55;;;10.00;;
45392;SDS011;31129;44.810;10.334;2024-02-14T10:11:56;16.15;;;8.70;;
45392;SDS011;31129;44.810;10.334;2024-02-14T10:14:23;17.33;;;10.35;;
45392;SDS011;31129;44.810;10.334;2024-02-14T10:16:49;16.77;;;9.65;;
45392;SDS011;31129;44.810;10.334;2024-02-14T10:19:15;15.13;;;9.68;;
45392;SDS011;31129;44.810;10.334;2024-02-14T10:21:43;14.77;;;9.57;;
45392;SDS011;31129;44.810;10.334;2024-02-14T10:24:19;17.10;;;9.20;;
45392;SDS011;31129;44.810;10.334;2024-02-14T10:26:45;12.93;;;8.27;;
45392;SDS011;31129;44.810;10.334;2024-02-14T10:29:11;13.13;;;8.98;;
45392;SDS011;31129;44.810;10.334;2024-02-14T10:31:37;17.63;;;8.70;;
45392;SDS011;31129;44.810;10.334;2024-02-14T10:34:02;15.98;;;8.40;;
45392;SDS011;31129;44.810;10.334;2024-02-14T10:36:31;14.27;;;8.45;;
45392;SDS011;31129;44.810;10.334;2024-02-14T10:38:59;14.57;;;8.80;;
45392;SDS011;31129;44.810;10.334;2024-02-14T10:41:26;12.60;;;8.65;;
45392;SDS011;31129;44.810;10.334;2024-02-14T10:43:52;13.63;;;8.98;;
45392;SDS011;31129;44.810;10.334;2024-02-14T10:46:20;15.50;;;9.18;;
45392;SDS011;31129;44.810;10.334;2024-02-14T10:48:56;12.55;;;9.10;;
45392;SDS011;31129;44.810;10.334;2024-02-14T10:51:25;18.27;;;10.18;;
45392;SDS011;31129;44.810;10.334;2024-02-14T10:53:56;17.55;;;9.82;;
45392;SDS011;31129;44.810;10.334;2024-02-14T10:58:53;17.40;;;9.77;;
45392;SDS011;31129;44.810;10.334;2024-02-14T11:01:23;25.67;;;11.25;;
45392;SDS011;31129;44.810;10.334;2024-02-14T11:03:50;20.63;;;11.38;;
45392;SDS011;31129;44.810;10.334;2024-02-14T11:06:16;19.15;;;11.05;;
45392;SDS011;31129;44.810;10.334;2024-02-14T11:09:03;21.83;;;11.20;;
45392;SDS011;31129;44.810;10.334;2024-02-14T11:11:33;22.60;;;10.98;;
45392;SDS011;31129;44.810;10.334;2024-02-14T11:13:59;18.23;;;11.30;;
45392;SDS011;31129;44.810;10.334;2024-02-14T11:16:25;20.88;;;10.90;;
45392;SDS011;31129;44.810;10.334;2024-02-14T11:18:53;22.05;;;12.02;;
45392;SDS011;31129;44.810;10.334;2024-02-14T11:21:20;21.70;;;12.00;;
45392;SDS011;31129;44.810;10.334;2024-02-14T11:23:54;19.25;;;12.63;;
45392;SDS011;31129;44.810;10.334;2024-02-14T11:26:20;20.33;;;12.52;;
45392;SDS011;31129;44.810;10.334;2024-02-14T11:28:48;21.98;;;13.23;;
45392;SDS011;31129;44.810;10.334;2024-02-14T11:31:17;22.45;;;13.32;;
45392;SDS011;31129;44.810;10.334;2024-02-14T11:33:42;25.50;;;15.15;;
45392;SDS011;31129;44.810;10.334;2024-02-14T11:36:11;25.63;;;15.95;;
45392;SDS011;31129;44.810;10.334;2024-02-14T11:38:37;31.13;;;15.82;;
45392;SDS011;31129;44.810;10.334;2024-02-14T11:41:02;23.02;;;16.23;;
45392;SDS011;31129;44.810;10.334;2024-02-14T11:43:28;26.20;;;16.63;;
45392;SDS011;31129;44.810;10.334;2024-02-14T11:45:55;27.08;;;16.23;;
45392;SDS011;31129;44.810;10.334;2024-02-14T11:48:21;29.25;;;17.13;;
45392;SDS011;31129;44.810;10.334;2024-02-14T11:50:48;26.45;;;17.08;;
45392;SDS011;31129;44.810;10.334;2024-02-14T11:53:14;22.63;;;15.90;;
45392;SDS011;31129;44.810;10.334;2024-02-14T11:55:44;25.13;;;16.05;;
45392;SDS011;31129;44.810;10.334;2024-02-14T11:58:12;25.83;;;16.08;;
45392;SDS011;31129;44.810;10.334;2024-02-14T12:00:41;26.70;;;16.35;;
45392;SDS011;31129;44.810;10.334;2024-02-14T12:03:12;25.83;;;15.90;;
45392;SDS011;31129;44.810;10.334;2024-02-14T12:05:40;25.27;;;15.70;;
45392;SDS011;31129;44.810;10.334;2024-02-14T12:08:08;29.40;;;16.17;;
45392;SDS011;31129;44.810;10.334;2024-02-14T12:10:35;26.23;;;16.02;;
45392;SDS011;31129;44.810;10.334;2024-02-14T12:13:11;25.23;;;16.42;;
45392;SDS011;31129;44.810;10.334;2024-02-14T12:15:41;22.65;;;14.73;;
45392;SDS011;31129;44.810;10.334;2024-02-14T12:18:09;28.27;;;14.95;;
45392;SDS011;31129;44.810;10.334;2024-02-14T12:20:38;32.40;;;17.08;;
45392;SDS011;31129;44.810;10.334;2024-02-14T12:23:04;27.00;;;16.63;;
45392;SDS011;31129;44.810;10.334;2024-02-14T12:25:33;28.73;;;16.65;;
45392;SDS011;31129;44.810;10.334;2024-02-14T12:27:59;26.52;;;16.35;;
45392;SDS011;31129;44.810;10.334;2024-02-14T12:30:45;25.55;;;16.33;;
45392;SDS011;31129;44.810;10.334;2024-02-14T12:33:12;26.88;;;17.10;;
45392;SDS011;31129;44.810;10.334;2024-02-14T12:35:44;30.85;;;17.98;;
45392;SDS011;31129;44.810;10.334;2024-02-14T12:38:12;26.55;;;17.42;;
45392;SDS011;31129;44.810;10.334;2024-02-14T12:40:40;29.02;;;17.35;;
45392;SDS011;31129;44.810;10.334;2024-02-14T12:43:10;32.30;;;18.55;;
45392;SDS011;31129;44.810;10.334;2024-02-14T12:45:36;30.05;;;17.75;;
45392;SDS011;31129;44.810;10.334;2024-02-14T12:48:03;29.40;;;18.13;;
45392;SDS011;31129;44.810;10.334;2024-02-14T12:50:32;31.95;;;17.90;;
45392;SDS011;31129;44.810;10.334;2024-02-14T12:55:23;28.77;;;16.33;;
45392;SDS011;31129;44.810;10.334;2024-02-14T12:57:51;34.25;;;19.35;;
45392;SDS011;31129;44.810;10.334;2024-02-14T13:00:17;32.50;;;18.25;;
45392;SDS011;31129;44.810;10.334;2024-02-14T13:02:42;28.42;;;17.27;;
45392;SDS011;31129;44.810;10.334;2024-02-14T13:05:08;30.02;;;17.73;;
45392;SDS011;31129;44.810;10.334;2024-02-14T13:07:34;28.27;;;17.17;;
45392;SDS011;31129;44.810;10.334;2024-02-14T13:10:00;33.70;;;19.38;;
45392;SDS011;31129;44.810;10.334;2024-02-14T13:12:26;32.28;;;16.98;;
45392;SDS011;31129;44.810;10.334;2024-02-14T13:14:52;31.88;;;18.35;;
45392;SDS011;31129;44.810;10.334;2024-02-14T13:17:18;28.67;;;17.55;;
45392;SDS011;31129;44.810;10.334;2024-02-14T13:19:43;32.33;;;19.00;;
45392;SDS011;31129;44.810;10.334;2024-02-14T13:22:09;34.58;;;17.88;;
45392;SDS011;31129;44.810;10.334;2024-02-14T13:24:35;34.00;;;17.88;;
45392;SDS011;31129;44.810;10.334;2024-02-14T13:27:00;31.48;;;18.95;;
45392;SDS011;31129;44.810;10.334;2024-02-14T13:29:26;34.08;;;19.20;;
45392;SDS011;31129;44.810;10.334;2024-02-14T13:31:52;30.70;;;18.98;;
45392;SDS011;31129;44.810;10.334;2024-02-14T13:34:18;37.25;;;20.83;;
45392;SDS011;31129;44.810;10.334;2024-02-14T13:36:46;32.38;;;19.80;;
45392;SDS011;31129;44.810;10.334;2024-02-14T13:39:12;39.78;;;20.98;;
45392;SDS011;31129;44.810;10.334;2024-02-14T13:41:39;32.72;;;19.08;;
45392;SDS011;31129;44.810;10.334;2024-02-14T13:44:08;34.67;;;19.77;;
45392;SDS011;31129;44.810;10.334;2024-02-14T13:46:34;31.10;;;19.83;;
45392;SDS011;31129;44.810;10.334;2024-02-14T13:48:59;33.55;;;19.33;;
45392;SDS011;31129;44.810;10.334;2024-02-14T13:51:25;31.83;;;19.83;;
45392;SDS011;31129;44.810;10.334;2024-02-14T13:53:52;29.73;;;19.08;;
45392;SDS011;31129;44.810;10.334;2024-02-14T13:56:18;37.63;;;19.88;;
45392;SDS011;31129;44.810;10.334;2024-02-14T13:58:47;32.55;;;19.40;;
45392;SDS011;31129;44.810;10.334;2024-02-14T14:01:14;34.03;;;19.63;;
45392;SDS011;31129;44.810;10.334;2024-02-14T14:03:40;35.10;;;19.75;;
45392;SDS011;31129;44.810;10.334;2024-02-14T14:06:06;29.17;;;19.13;;
45392;SDS011;31129;44.810;10.334;2024-02-14T14:08:36;36.33;;;19.58;;
45392;SDS011;31129;44.810;10.334;2024-02-14T14:11:04;35.28;;;20.25;;
45392;SDS011;31129;44.810;10.334;2024-02-14T14:13:30;31.77;;;18.90;;
45392;SDS011;31129;44.810;10.334;2024-02-14T14:15:58;35.63;;;20.13;;
45392;SDS011;31129;44.810;10.334;2024-02-14T14:18:25;32.30;;;19.25;;
45392;SDS011;31129;44.810;10.334;2024-02-14T14:20:50;32.08;;;18.83;;
45392;SDS011;31129;44.810;10.334;2024-02-14T14:23:16;29.50;;;19.63;;
45392;SDS011;31129;44.810;10.334;2024-02-14T14:25:41;29.35;;;18.23;;
45392;SDS011;31129;44.810;10.334;2024-02-14T14:28:07;32.00;;;19.15;;
45392;SDS011;31129;44.810;10.334;2024-02-14T14:30:37;30.23;;;17.10;;
45392;SDS011;31129;44.810;10.334;2024-02-14T14:33:03;29.35;;;17.85;;
45392;SDS011;31129;44.810;10.334;2024-02-14T14:35:29;28.10;;;18.27;;
45392;SDS011;31129;44.810;10.334;2024-02-14T14:38:02;29.52;;;17.13;;
45392;SDS011;31129;44.810;10.334;2024-02-14T14:40:28;29.02;;;17.35;;
45392;SDS011;31129;44.810;10.334;2024-02-14T14:42:54;34.28;;;19.33;;
45392;SDS011;31129;44.810;10.334;2024-02-14T14:45:20;33.70;;;18.80;;
45392;SDS011;31129;44.810;10.334;2024-02-14T14:47:45;31.63;;;18.05;;
45392;SDS011;31129;44.810;10.334;2024-02-14T14:50:11;30.02;;;18.58;;
45392;SDS011;31129;44.810;10.334;2024-02-14T14:52:41;31.25;;;18.23;;
45392;SDS011;31129;44.810;10.334;2024-02-14T14:55:09;30.08;;;18.98;;
45392;SDS011;31129;44.810;10.334;2024-02-14T14:57:35;34.97;;;17.95;;
45392;SDS011;31129;44.810;10.334;2024-02-14T15:02:37;29.20;;;16.85;;
45392;SDS011;31129;44.810;10.334;2024-02-14T15:05:05;27.48;;;16.42;;
45392;SDS011;31129;44.810;10.334;2024-02-14T15:07:33;26.52;;;16.30;;
45392;SDS011;31129;44.810;10.334;2024-02-14T15:09:58;25.90;;;16.40;;
45392;SDS011;31129;44.810;10.334;2024-02-14T15:12:24;25.35;;;16.27;;
45392;SDS011;31129;44.810;10.334;2024-02-14T15:14:51;26.08;;;16.70;;
45392;SDS011;31129;44.810;10.334;2024-02-14T15:17:17;26.13;;;15.75;;
45392;SDS011;31129;44.810;10.334;2024-02-14T15:19:43;28.45;;;16.42;;
45392;SDS011;31129;44.810;10.334;2024-02-14T15:22:08;27.42;;;15.48;;
45392;SDS011;31129;44.810;10.334;2024-02-14T15:24:34;28.40;;;15.82;;
45392;SDS011;31129;44.810;10.334;2024-02-14T15:27:02;28.55;;;16.77;;
45392;SDS011;31129;44.810;10.334;2024-02-14T15:29:28;28.17;;;17.15;;
45392;SDS011;31129;44.810;10.334;2024-02-14T15:32:17;26.83;;;16.88;;
45392;SDS011;31129;44.810;10.334;2024-02-14T15:35:01;27.05;;;16.85;;
45392;SDS011;31129;44.810;10.334;2024-02-14T15:37:29;29.83;;;17.83;;
45392;SDS011;31129;44.810;10.334;2024-02-14T15:39:56;31.95;;;17.08;;
45392;SDS011;31129;44.810;10.334;2024-02-14T15:42:22;31.85;;;18.42;;
45392;SDS011;31129;44.810;10.334;2024-02-14T15:44:48;28.15;;;17.38;;
45392;SDS011;31129;44.810;10.334;2024-02-14T15:47:14;30.45;;;16.95;;
45392;SDS011;31129;44.810;10.334;2024-02-14T15:49:39;31.25;;;18.48;;
45392;SDS011;31129;44.810;10.334;2024-02-14T15:52:05;29.27;;;18.17;;
45392;SDS011;31129;44.810;10.334;2024-02-14T15:54:31;30.38;;;18.75;;
45392;SDS011;31129;44.810;10.334;2024-02-14T15:56:57;29.83;;;17.17;;
45392;SDS011;31129;44.810;10.334;2024-02-14T15:59:22;28.48;;;17.23;;
45392;SDS011;31129;44.810;10.334;2024-02-14T16:01:48;28.17;;;18.45;;
45392;SDS011;31129;44.810;10.334;2024-02-14T16:04:13;34.60;;;17.88;;
45392;SDS011;31129;44.810;10.334;2024-02-14T16:06:39;30.48;;;18.30;;
45392;SDS011;31129;44.810;10.334;2024-02-14T16:09:05;29.83;;;17.83;;
45392;SDS011;31129;44.810;10.334;2024-02-14T16:11:30;29.80;;;17.27;;
45392;SDS011;31129;44.810;10.334;2024-02-14T16:13:57;29.95;;;17.95;;
45392;SDS011;31129;44.810;10.334;2024-02-14T16:16:23;34.92;;;18.10;;
45392;SDS011;31129;44.810;10.334;2024-02-14T16:18:50;29.02;;;17.88;;
45392;SDS011;31129;44.810;10.334;2024-02-14T16:21:15;33.35;;;18.60;;
45392;SDS011;31129;44.810;10.334;2024-02-14T16:23:41;34.97;;;18.60;;
45392;SDS011;31129;44.810;10.334;2024-02-14T16:26:06;31.17;;;18.42;;
45392;SDS011;31129;44.810;10.334;2024-02-14T16:28:33;30.35;;;18.20;;
45392;SDS011;31129;44.810;10.334;2024-02-14T16:30:58;35.47;;;18.42;;
45392;SDS011;31129;44.810;10.334;2024-02-14T16:33:25;34.72;;;18.42;;
45392;SDS011;31129;44.810;10.334;2024-02-14T16:35:50;34.70;;;18.30;;
45392;SDS011;31129;44.810;10.334;2024-02-14T16:38:16;35.95;;;18.65;;
45392;SDS011;31129;44.810;10.334;2024-02-14T16:40:41;35.67;;;18.15;;
45392;SDS011;31129;44.810;10.334;2024-02-14T16:43:07;34.55;;;20.13;;
45392;SDS011;31129;44.810;10.334;2024-02-14T16:45:34;37.53;;;19.60;;
45392;SDS011;31129;44.810;10.334;2024-02-14T16:48:00;38.90;;;19.25;;
45392;SDS011;31129;44.810;10.334;2024-02-14T16:50:25;40.75;;;21.00;;
45392;SDS011;31129;44.810;10.334;2024-02-14T16:52:53;43.70;;;21.10;;
45392;SDS011;31129;44.810;10.334;2024-02-14T16:55:19;36.83;;;21.45;;
45392;SDS011;31129;44.810;10.334;2024-02-14T16:57:45;38.67;;;20.08;;
45392;SDS011;31129;44.810;10.334;2024-02-14T17:00:10;38.30;;;19.33;;
45392;SDS011;31129;44.810;10.334;2024-02-14T17:02:36;42.30;;;20.63;;
45392;SDS011;31129;44.810;10.334;2024-02-14T17:05:02;40.05;;;19.13;;
45392;SDS011;31129;44.810;10.334;2024-02-14T17:07:27;38.92;;;19.67;;
45392;SDS011;31129;44.810;10.334;2024-02-14T17:09:53;37.20;;;19.77;;
45392;SDS011;31129;44.810;10.334;2024-02-14T17:12:22;36.60;;;19.95;;
45392;SDS011;31129;44.810;10.334;2024-02-14T17:14:47;35.03;;;19.35;;
45392;SDS011;31129;44.810;10.334;2024-02-14T17:17:13;38.60;;;20.30;;
45392;SDS011;31129;44.810;10.334;2024-02-14T17:19:39;38.38;;;20.38;;
45392;SDS011;31129;44.810;10.334;2024-02-14T17:22:05;36.70;;;20.35;;
45392;SDS011;31129;44.810;10.334;2024-02-14T17:24:31;34.97;;;19.20;;
45392;SDS011;31129;44.810;10.334;2024-02-14T17:26:57;39.42;;;20.92;;
45392;SDS011;31129;44.810;10.334;2024-02-14T17:29:23;41.10;;;20.33;;
45392;SDS011;31129;44.810;10.334;2024-02-14T17:31:48;38.17;;;19.90;;
45392;SDS011;31129;44.810;10.334;2024-02-14T17:34:15;39.72;;;20.50;;
45392;SDS011;31129;44.810;10.334;2024-02-14T17:36:41;34.38;;;20.42;;
45392;SDS011;31129;44.810;10.334;2024-02-14T17:39:06;37.92;;;19.75;;
45392;SDS011;31129;44.810;10.334;2024-02-14T17:41:32;37.55;;;21.27;;
45392;SDS011;31129;44.810;10.334;2024-02-14T17:44:01;36.92;;;21.42;;
45392;SDS011;31129;44.810;10.334;2024-02-14T17:46:27;37.92;;;20.27;;
45392;SDS011;31129;44.810;10.334;2024-02-14T17:48:53;36.08;;;20.73;;
45392;SDS011;31129;44.810;10.334;2024-02-14T17:51:19;38.38;;;20.13;;
45392;SDS011;31129;44.810;10.334;2024-02-14T17:53:45;42.08;;;21.10;;
45392;SDS011;31129;44.810;10.334;2024-02-14T17:56:11;34.70;;;20.98;;
45392;SDS011;31129;44.810;10.334;2024-02-14T17:58:37;37.65;;;21.55;;
45392;SDS011;31129;44.810;10.334;2024-02-14T18:01:06;44.80;;;21.25;;
45392;SDS011;31129;44.810;10.334;2024-02-14T18:03:40;37.03;;;21.00;;
45392;SDS011;31129;44.810;10.334;2024-02-14T18:06:06;33.83;;;19.10;;
45392;SDS011;31129;44.810;10.334;2024-02-14T18:08:33;36.33;;;21.27;;
45392;SDS011;31129;44.810;10.334;2024-02-14T18:10:59;35.92;;;20.75;;
45392;SDS011;31129;44.810;10.334;2024-02-14T18:13:25;33.80;;;19.88;;
45392;SDS011;31129;44.810;10.334;2024-02-14T18:15:50;36.90;;;20.77;;
45392;SDS011;31129;44.810;10.334;2024-02-14T18:18:16;37.75;;;21.05;;
45392;SDS011;31129;44.810;10.334;2024-02-14T18:20:41;39.85;;;20.67;;
45392;SDS011;31129;44.810;10.334;2024-02-14T18:23:07;41.80;;;21.77;;
45392;SDS011;31129;44.810;10.334;2024-02-14T18:25:32;43.95;;;22.42;;
45392;SDS011;31129;44.810;10.334;2024-02-14T18:28:00;43.65;;;22.92;;
45392;SDS011;31129;44.810;10.334;2024-02-14T18:30:25;42.27;;;24.73;;
45392;SDS011;31129;44.810;10.334;2024-02-14T18:32:52;47.13;;;24.75;;
45392;SDS011;31129;44.810;10.334;2024-02-14T18:35:17;44.55;;;24.65;;
45392;SDS011;31129;44.810;10.334;2024-02-14T18:37:43;47.22;;;23.88;;
45392;SDS011;31129;44.810;10.334;2024-02-14T18:40:09;46.85;;;23.15;;
45392;SDS011;31129;44.810;10.334;2024-02-14T18:42:36;52.83;;;24.35;;
45392;SDS011;31129;44.810;10.334;2024-02-14T18:45:02;46.83;;;24.40;;
45392;SDS011;31129;44.810;10.334;2024-02-14T18:47:32;50.40;;;24.73;;
45392;SDS011;31129;44.810;10.334;2024-02-14T18:49:57;58.00;;;26.85;;
45392;SDS011;31129;44.810;10.334;2024-02-14T18:52:23;54.03;;;26.02;;
45392;SDS011;31129;44.810;10.334;2024-02-14T18:54:48;53.08;;;25.20;;
45392;SDS011;31129;44.810;10.334;2024-02-14T18:57:14;48.10;;;24.30;;
45392;SDS011;31129;44.810;10.334;2024-02-14T18:59:39;49.75;;;25.38;;
45392;SDS011;31129;44.810;10.334;2024-02-14T19:02:07;49.40;;;25.50;;
45392;SDS011;31129;44.810;10.334;2024-02-14T19:04:34;54.00;;;25.42;;
45392;SDS011;31129;44.810;10.334;2024-02-14T19:06:59;46.00;;;23.98;;
45392;SDS011;31129;44.810;10.334;2024-02-14T19:09:25;41.35;;;23.13;;
45392;SDS011;31129;44.810;10.334;2024-02-14T19:11:52;45.33;;;23.17;;
45392;SDS011;31129;44.810;10.334;2024-02-14T19:14:17;44.10;;;22.30;;
45392;SDS011;31129;44.810;10.334;2024-02-14T19:19:11;44.30;;;21.92;;
45392;SDS011;31129;44.810;10.334;2024-02-14T19:21:40;48.13;;;23.73;;
45392;SDS011;31129;44.810;10.334;2024-02-14T19:24:05;47.67;;;22.30;;
45392;SDS011;31129;44.810;10.334;2024-02-14T19:26:31;42.17;;;22.67;;
45392;SDS011;31129;44.810;10.334;2024-02-14T19:28:57;38.35;;;21.55;;
45392;SDS011;31129;44.810;10.334;2024-02-14T19:31:22;45.28;;;21.98;;
45392;SDS011;31129;44.810;10.334;2024-02-14T19:33:48;38.70;;;21.17;;
45392;SDS011;31129;44.810;10.334;2024-02-14T19:36:13;45.35;;;22.15;;
45392;SDS011;31129;44.810;10.334;2024-02-14T19:38:39;43.85;;;22.27;;
45392;SDS011;31129;44.810;10.334;2024-02-14T19:41:04;45.42;;;22.58;;
45392;SDS011;31129;44.810;10.334;2024-02-14T19:43:31;45.47;;;22.85;;
45392;SDS011;31129;44.810;10.334;2024-02-14T19:45:56;46.78;;;22.85;;